Whitefish, Canada
Current Conditions -  °F | °C
As of 8:00 PM on Saturday 20 Dec 2014 (Local Time) from CYSB Reporting Station
Broken Clouds Broken Clouds  
Wind Chill: -9°   Ceiling: 8000
Heat Index: -9°   Visibility: 15mi
Dew Point: -11°   Wind: 2mph
Humidity: 86%   Direction: 350°N
Pressure: 30.24"   Gusts: NA
Location:  46.37°N, 81.32°W
Report Text: CYSB 210100Z 35002KT 15SM BKN080 M09/M11 A3024 RMK AC5 SLP270
Loading
Personal Weather Stations






























Interactive Weather Map New forecast layout! Learn more

10-Day Weather Forecast

Advertisements
Track Severe Weather on mobile